Time;durP1;ratioP1;P1;durP2;ratioP2;P2;SDS_P1;SDS_P2;PMS_P1;PMS_P2;Temp;Humidity;BMP_temperature;BMP_pressure;BME280_temperature;BME280_humidity;BME280_pressure;Samples;Min_cycle;Max_cycle;Signal;HPM_P1;HPM_P2
2022/09/04 00:00:00;;;;;;;2.72;1.50;;;16.60;85.00;;;;;;5042936;28;20495;-46
2022/09/04 00:02:44;;;;;;;1.35;1.25;;;16.60;84.90;;;;;;5038717;28;20048;-47
2022/09/04 00:05:27;;;;;;;5.95;1.40;;;16.50;85.10;;;;;;5043508;28;20064;-45
2022/09/04 00:08:29;;;;;;;4.85;1.30;;;16.50;85.00;;;;;;5041387;28;20044;-48
2022/09/04 00:11:13;;;;;;;5.10;1.38;;;16.40;84.90;;;;;;5040782;28;20487;-45
2022/09/04 00:13:50;;;;;;;3.42;1.50;;;16.40;85.30;;;;;;5036939;28;20149;-48
2022/09/04 00:16:21;;;;;;;5.25;1.48;;;16.40;85.40;;;;;;5041848;28;20071;-48
2022/09/04 00:19:07;;;;;;;4.13;1.60;;;16.30;85.60;;;;;;5042231;28;20308;-50
2022/09/04 00:21:36;;;;;;;1.50;1.40;;;16.30;85.90;;;;;;5039679;28;20065;-45
2022/09/04 00:24:11;;;;;;;2.78;1.40;;;16.20;85.90;;;;;;5037622;28;20492;-50
2022/09/04 00:26:40;;;;;;;1.73;1.40;;;16.20;85.80;;;;;;5040741;28;20049;-47
2022/09/04 00:29:18;;;;;;;2.95;1.83;;;16.20;86.20;;;;;;5044254;28;20052;-47
2022/09/04 00:31:53;;;;;;;3.00;1.40;;;16.20;85.90;;;;;;5040647;28;20049;-46
2022/09/04 00:34:36;;;;;;;4.38;1.50;;;16.20;86.40;;;;;;5023245;28;20424;-49
2022/09/04 00:37:05;;;;;;;4.10;1.58;;;16.10;86.10;;;;;;5036669;28;20491;-46
2022/09/04 00:40:08;;;;;;;4.03;1.52;;;16.10;86.50;;;;;;5043451;28;20569;-49
2022/09/04 00:42:57;;;;;;;4.13;1.90;;;16.10;86.30;;;;;;5041629;28;20129;-46
2022/09/04 00:45:53;;;;;;;2.08;1.38;;;16.10;86.20;;;;;;5037194;28;20082;-47
2022/09/04 00:48:36;;;;;;;2.15;1.65;;;16.10;86.50;;;;;;5038844;28;20111;-45
2022/09/04 00:51:43;;;;;;;3.05;1.40;;;16.00;86.80;;;;;;5041749;28;20074;-50
2022/09/04 00:54:14;;;;;;;3.80;1.70;;;16.00;86.70;;;;;;5042918;28;20143;-46
2022/09/04 00:56:39;;;;;;;2.70;1.98;;;16.00;86.70;;;;;;5042995;28;20067;-50
2022/09/04 00:59:37;;;;;;;4.03;1.50;;;16.00;87.10;;;;;;5042401;28;20605;-50
2022/09/04 01:02:44;;;;;;;4.75;1.80;;;15.90;87.20;;;;;;5001546;28;20053;-49
2022/09/04 01:05:11;;;;;;;;;;;;;;;;;;5037756;28;20029;-46
2022/09/04 01:07:53;;;;;;;4.32;3.13;;;15.80;87.10;;;;;;5042094;28;19921;-48
2022/09/04 01:11:08;;;;;;;4.00;2.10;;;15.90;92.60;;;;;;5040209;28;20049;-48
2022/09/04 01:13:40;;;;;;;5.90;1.70;;;15.70;88.30;;;;;;4970967;28;20051;-48
2022/09/04 01:16:13;;;;;;;5.75;1.50;;;;;;;;;;4973159;28;20057;-51
2022/09/04 01:18:44;;;;;;;2.15;1.60;;;15.70;87.70;;;;;;4974958;28;20043;-50
2022/09/04 01:21:34;;;;;;;2.75;1.77;;;15.60;88.60;;;;;;4977992;28;20046;-50
2022/09/04 01:24:32;;;;;;;2.80;1.70;;;15.60;89.30;;;;;;4975790;28;20496;-49
2022/09/04 01:27:21;;;;;;;3.05;1.83;;;15.50;90.20;;;;;;4943000;28;20414;-49
2022/09/04 01:30:07;;;;;;;2.15;1.52;;;15.50;89.20;;;;;;4915239;28;20050;-46
2022/09/04 01:33:14;;;;;;;3.05;1.80;;;15.50;98.30;;;;;;4945667;28;20486;-48
2022/09/04 01:36:07;;;;;;;1.60;1.50;;;15.40;89.70;;;;;;4940943;28;20402;-48
2022/09/04 01:38:53;;;;;;;2.88;1.60;;;15.40;89.80;;;;;;4943527;28;20490;-46
2022/09/04 01:41:43;;;;;;;3.58;1.98;;;15.40;90.30;;;;;;4949410;28;20046;-49
2022/09/04 01:44:10;;;;;;;3.42;2.00;;;15.50;99.30;;;;;;4941871;28;20410;-49
2022/09/04 01:47:03;;;;;;;2.85;1.67;;;15.50;94.70;;;;;;4948819;28;20588;-46
2022/09/04 01:49:47;;;;;;;5.28;1.90;;;15.40;96.40;;;;;;4958152;28;20062;-47
2022/09/04 01:52:35;;;;;;;2.97;1.73;;;15.40;99.90;;;;;;4987358;28;20465;-49
2022/09/04 01:55:03;;;;;;;3.47;1.63;;;15.40;99.90;;;;;;4983700;28;20042;-46
2022/09/04 01:57:56;;;;;;;2.00;1.50;;;15.40;99.90;;;;;;4988203;28;20077;-46
2022/09/04 02:00:24;;;;;;;3.70;2.00;;;15.40;99.90;;;;;;4986282;28;20362;-48
2022/09/04 02:02:54;;;;;;;3.15;1.63;;;15.30;99.90;;;;;;5019934;28;20061;-48
2022/09/04 02:05:25;;;;;;;4.63;1.80;;;15.50;99.90;;;;;;5027065;28;20036;-46
2022/09/04 02:08:03;;;;;;;3.83;1.80;;;15.30;99.90;;;;;;5028086;28;20053;-49
2022/09/04 02:10:49;;;;;;;2.95;2.00;;;15.30;99.90;;;;;;5045211;28;20399;-47
2022/09/04 02:13:34;;;;;;;1.65;1.45;;;15.30;99.90;;;;;;5043704;28;20049;-47
2022/09/04 02:16:19;;;;;;;4.75;1.90;;;15.30;99.90;;;;;;5042511;28;20053;-48
2022/09/04 02:18:57;;;;;;;2.67;1.92;;;15.30;99.90;;;;;;5044974;28;20045;-49
2022/09/04 02:21:41;;;;;;;2.92;1.65;;;15.20;99.90;;;;;;5040423;28;20033;-48
2022/09/04 02:24:46;;;;;;;2.78;1.90;;;15.20;99.90;;;;;;5050506;28;20045;-46
2022/09/04 02:27:41;;;;;;;4.95;2.10;;;15.20;99.90;;;;;;5041430;28;20051;-51
2022/09/04 02:30:10;;;;;;;2.60;1.95;;;15.20;99.90;;;;;;5025546;28;20041;-46
2022/09/04 02:33:04;;;;;;;3.40;2.00;;;15.10;99.90;;;;;;5044569;28;20053;-49
2022/09/04 02:35:41;;;;;;;3.20;2.10;;;15.10;99.90;;;;;;5042063;28;20029;-48
2022/09/04 02:38:12;;;;;;;4.87;1.90;;;15.10;99.90;;;;;;5042925;28;20505;-46
2022/09/04 02:40:43;;;;;;;3.42;2.03;;;;;;;;;;5041407;28;20448;-46
2022/09/04 02:43:20;;;;;;;3.15;1.80;;;15.00;99.90;;;;;;5041113;28;20048;-46
2022/09/04 02:46:06;;;;;;;3.42;1.70;;;;;;;;;;5041256;28;20083;-46
2022/09/04 02:48:40;;;;;;;5.10;1.70;;;;;;;;;;5042347;28;20056;-47
2022/09/04 02:51:25;;;;;;;2.15;1.70;;;;;;;;;;5039362;28;20056;-52
2022/09/04 02:54:10;;;;;;;2.15;1.95;;;;;;;;;;5042019;28;20045;-51
2022/09/04 02:56:36;;;;;;;2.90;1.90;;;;;;;;;;5043475;28;20114;-48
2022/09/04 02:59:20;;;;;;;4.43;2.00;;;;;;;;;;5042617;28;20046;-47
2022/09/04 03:01:52;;;;;;;4.40;1.65;;;;;;;;;;5039520;28;20120;-46
2022/09/04 03:05:00;;;;;;;2.95;1.70;;;14.90;99.90;;;;;;5041981;28;20041;-49
2022/09/04 03:07:35;;;;;;;3.72;1.83;;;14.90;99.90;;;;;;5043697;28;20049;-50
2022/09/04 03:10:14;;;;;;;4.35;1.90;;;14.80;99.90;;;;;;5041964;28;20076;-49
2022/09/04 03:13:00;;;;;;;2.65;2.00;;;14.80;96.90;;;;;;5044029;28;20063;-51
2022/09/04 03:15:42;;;;;;;4.95;2.00;;;14.90;99.90;;;;;;5040627;28;20041;-52
2022/09/04 03:18:24;;;;;;;3.42;2.05;;;;;;;;;;5044023;28;20125;-47
2022/09/04 03:21:25;;;;;;;4.07;1.77;;;;;;;;;;5041329;28;20372;-46
2022/09/04 03:23:57;;;;;;;3.72;1.88;;;14.50;99.90;;;;;;4982274;28;20038;-47
2022/09/04 03:26:34;;;;;;;3.38;2.13;;;14.70;99.90;;;;;;4977215;28;20543;-51
2022/09/04 03:29:01;;;;;;;2.15;1.90;;;14.60;93.90;;;;;;4980270;28;20043;-48
2022/09/04 03:31:43;;;;;;;;;;;15.00;99.90;;;;;;4963173;28;20121;-46
2022/09/04 03:34:28;;;;;;;5.47;2.20;;;;;;;;;;4973731;28;19929;-50
2022/09/04 03:37:26;;;;;;;2.67;1.88;;;14.40;92.30;;;;;;4975247;28;20043;-48
2022/09/04 03:40:07;;;;;;;4.53;2.10;;;14.40;92.70;;;;;;4978937;28;20116;-45
2022/09/04 03:43:05;;;;;;;3.08;2.33;;;14.40;92.90;;;;;;4977502;28;20039;-47
2022/09/04 03:45:59;;;;;;;4.55;2.08;;;14.40;92.70;;;;;;4964795;28;20381;-48
2022/09/04 03:48:47;;;;;;;3.63;2.15;;;14.30;93.40;;;;;;4975962;28;20125;-46
2022/09/04 03:51:33;;;;;;;2.60;2.05;;;14.30;92.90;;;;;;4974606;28;20062;-48
2022/09/04 03:54:24;;;;;;;4.03;2.20;;;14.30;93.30;;;;;;4961998;28;20121;-49
2022/09/04 03:57:23;;;;;;;3.47;2.00;;;14.30;93.20;;;;;;4982234;28;20244;-49
2022/09/04 04:00:10;;;;;;;4.25;2.22;;;14.20;93.00;;;;;;5043563;28;20041;-48
2022/09/04 04:03:06;;;;;;;5.07;2.40;;;14.20;93.40;;;;;;5042152;28;20174;-50
2022/09/04 04:05:40;;;;;;;2.47;2.00;;;14.20;93.30;;;;;;5040987;28;20040;-48
2022/09/04 04:08:28;;;;;;;4.63;2.30;;;14.20;93.50;;;;;;5028921;28;20047;-49
2022/09/04 04:11:31;;;;;;;2.45;1.90;;;14.20;93.50;;;;;;5043320;28;20049;-49
2022/09/04 04:14:06;;;;;;;3.85;2.33;;;14.20;93.80;;;;;;5041956;28;20132;-49
2022/09/04 04:16:52;;;;;;;4.90;2.08;;;14.20;93.90;;;;;;5036494;28;20037;-50
2022/09/04 04:19:51;;;;;;;4.60;2.33;;;14.20;94.30;;;;;;5042178;28;20428;-50
2022/09/04 04:22:26;;;;;;;3.15;2.58;;;14.10;94.10;;;;;;5032960;28;20041;-47
2022/09/04 04:25:06;;;;;;;2.55;2.22;;;14.20;94.20;;;;;;5041967;28;20051;-48
2022/09/04 04:27:57;;;;;;;3.60;2.40;;;14.10;94.00;;;;;;5036615;28;20545;-51
2022/09/04 04:30:23;;;;;;;3.05;2.25;;;14.10;94.10;;;;;;5044094;28;20067;-46
2022/09/04 04:33:08;;;;;;;7.00;2.47;;;14.10;94.30;;;;;;5043095;28;20736;-51
2022/09/04 04:35:56;;;;;;;4.05;1.98;;;14.10;94.50;;;;;;5040180;28;20403;-45
2022/09/04 04:38:32;;;;;;;4.18;2.33;;;14.00;94.50;;;;;;5041809;28;20403;-47
2022/09/04 04:41:03;;;;;;;5.28;2.25;;;14.00;94.40;;;;;;5042103;28;20052;-48
2022/09/04 04:43:38;;;;;;;2.85;2.55;;;14.00;94.30;;;;;;5041788;28;20394;-47
2022/09/04 04:46:19;;;;;;;3.03;2.08;;;14.00;94.50;;;;;;5040222;28;20128;-47
2022/09/04 04:49:06;;;;;;;9.90;2.35;;;14.00;94.50;;;;;;5041828;28;20053;-49
2022/09/04 04:51:50;;;;;;;2.90;2.30;;;14.00;94.60;;;;;;5040977;28;20048;-46
2022/09/04 04:54:34;;;;;;;4.55;2.47;;;14.00;94.60;;;;;;5042380;28;20494;-46
2022/09/04 04:57:18;;;;;;;3.83;2.47;;;14.00;94.90;;;;;;5041421;28;20057;-51
2022/09/04 05:00:08;;;;;;;2.47;2.28;;;14.00;95.10;;;;;;5040929;28;20060;-46
2022/09/04 05:02:52;;;;;;;4.63;2.45;;;14.00;95.00;;;;;;5021571;28;20041;-48
2022/09/04 05:05:56;;;;;;;4.60;2.70;;;14.00;94.90;;;;;;5040215;28;20045;-45
2022/09/04 05:08:46;;;;;;;4.72;2.58;;;14.00;95.10;;;;;;5042227;28;20083;-49
2022/09/04 05:11:54;;;;;;;4.40;2.67;;;14.00;95.00;;;;;;5040178;28;20037;-47
2022/09/04 05:14:56;;;;;;;2.88;2.50;;;14.10;95.00;;;;;;5042108;28;20057;-47
2022/09/04 05:17:30;;;;;;;4.35;2.60;;;14.10;95.10;;;;;;5043776;28;20049;-47
2022/09/04 05:20:24;;;;;;;4.65;2.63;;;14.10;95.10;;;;;;5040272;28;20056;-46
2022/09/04 05:23:07;;;;;;;2.60;2.40;;;14.10;95.00;;;;;;5026955;28;20518;-45
2022/09/04 05:25:35;;;;;;;3.35;2.50;;;14.20;94.80;;;;;;5039406;28;20033;-49
2022/09/04 05:28:30;;;;;;;3.42;2.28;;;14.20;95.00;;;;;;5046601;28;20041;-48
2022/09/04 05:31:17;;;;;;;3.13;2.28;;;14.50;98.00;;;;;;4975844;28;20183;-46
2022/09/04 05:33:58;;;;;;;6.20;2.70;;;14.40;95.10;;;;;;4979306;28;20066;-50
2022/09/04 05:36:28;;;;;;;6.40;2.65;;;14.40;95.00;;;;;;4980128;28;20179;-49
2022/09/04 05:39:35;;;;;;;5.47;2.63;;;14.50;94.90;;;;;;4979580;28;20112;-46
2022/09/04 05:42:44;;;;;;;5.28;2.70;;;14.60;95.00;;;;;;4961384;28;20137;-46
2022/09/04 05:45:39;;;;;;;4.07;2.53;;;14.70;94.90;;;;;;4977166;28;20050;-46
2022/09/04 05:48:31;;;;;;;4.72;3.00;;;14.80;95.20;;;;;;4979117;28;20521;-45
2022/09/04 05:51:26;;;;;;;3.95;3.08;;;15.00;97.50;;;;;;4983559;28;20532;-45
2022/09/04 05:54:15;;;;;;;3.13;2.50;;;15.20;98.50;;;;;;4981529;28;20055;-47
2022/09/04 05:56:59;;;;;;;5.13;2.55;;;15.10;94.70;;;;;;4977975;28;20119;-46
2022/09/04 05:59:31;;;;;;;3.28;2.60;;;15.50;99.90;;;;;;4981812;28;20058;-48
2022/09/04 06:02:13;;;;;;;4.50;2.90;;;17.10;93.50;;;;;;4983010;28;20047;-48
2022/09/04 06:04:39;;;;;;;4.18;2.80;;;17.10;93.70;;;;;;4980069;28;20034;-47
2022/09/04 06:07:16;;;;;;;3.78;2.30;;;17.90;92.00;;;;;;5001790;28;20064;-45
2022/09/04 06:10:00;;;;;;;3.88;2.60;;;18.60;91.50;;;;;;5042549;28;20480;-46
2022/09/04 06:12:50;;;;;;;2.63;2.42;;;19.30;90.80;;;;;;5043970;28;20125;-48
2022/09/04 06:15:53;;;;;;;3.28;2.83;;;19.60;89.70;;;;;;5043999;28;20052;-47
2022/09/04 06:18:43;;;;;;;3.10;2.80;;;19.80;87.60;;;;;;5041873;28;20502;-48
2022/09/04 06:21:37;;;;;;;5.53;2.83;;;20.30;87.40;;;;;;5041827;28;20037;-49
2022/09/04 06:24:02;;;;;;;6.85;2.80;;;20.40;85.80;;;;;;5041993;28;20041;-47
2022/09/04 06:26:39;;;;;;;4.00;2.42;;;20.80;84.80;;;;;;5047140;28;20037;-50
2022/09/04 06:29:14;;;;;;;3.55;2.80;;;20.50;84.30;;;;;;5046485;28;20048;-50
2022/09/04 06:31:48;;;;;;;7.45;2.78;;;20.80;84.20;;;;;;5043111;28;20407;-46
2022/09/04 06:34:34;;;;;;;2.80;2.60;;;20.60;82.10;;;;;;5042924;28;20391;-47
2022/09/04 06:37:37;;;;;;;5.10;2.60;;;20.40;83.20;;;;;;5047826;28;20551;-50
2022/09/04 06:40:33;;;;;;;3.72;2.90;;;20.50;82.90;;;;;;4979334;28;20050;-47
2022/09/04 06:43:12;;;;;;;3.00;2.70;;;20.40;82.60;;;;;;4977409;28;20038;-48
2022/09/04 06:46:08;;;;;;;5.15;2.70;;;20.70;83.80;;;;;;4979963;28;20047;-49
2022/09/04 06:48:55;;;;;;;7.40;3.10;;;20.80;83.60;;;;;;4976022;28;20682;-49
2022/09/04 06:51:42;;;;;;;4.78;3.08;;;20.70;82.90;;;;;;4976648;28;20062;-48
2022/09/04 06:54:24;;;;;;;4.45;2.80;;;20.40;81.90;;;;;;4979682;28;20042;-48
2022/09/04 06:57:00;;;;;;;4.82;2.90;;;20.70;82.80;;;;;;4968084;28;20084;-50
2022/09/04 06:59:40;;;;;;;3.38;2.78;;;21.20;83.40;;;;;;4973979;28;20373;-47
2022/09/04 07:02:21;;;;;;;5.55;3.10;;;21.30;82.20;;;;;;4974503;28;20108;-50
2022/09/04 07:04:49;;;;;;;4.15;3.22;;;21.20;82.00;;;;;;4979026;28;20460;-50
2022/09/04 07:07:42;;;;;;;4.00;2.80;;;21.70;81.30;;;;;;4981666;28;20050;-46
2022/09/04 07:10:16;;;;;;;4.35;2.78;;;22.00;81.70;;;;;;4969123;28;20042;-49
2022/09/04 07:13:11;;;;;;;5.07;2.83;;;21.90;81.70;;;;;;4976049;28;20102;-50
2022/09/04 07:16:18;;;;;;;3.22;2.80;;;21.90;80.70;;;;;;4980830;28;20035;-47
2022/09/04 07:19:06;;;;;;;4.25;2.80;;;21.40;81.00;;;;;;5042495;28;20068;-46
2022/09/04 07:22:10;;;;;;;5.97;2.90;;;21.00;82.50;;;;;;5040887;28;20394;-45
2022/09/04 07:25:18;;;;;;;3.53;2.58;;;20.60;83.70;;;;;;5024451;28;20033;-47
2022/09/04 07:28:04;;;;;;;5.40;2.78;;;20.20;84.50;;;;;;4979794;28;20046;-47
2022/09/04 07:30:39;;;;;;;4.57;2.63;;;20.50;85.70;;;;;;4957742;28;20047;-46
2022/09/04 07:33:26;;;;;;;8.13;2.55;;;20.10;85.40;;;;;;4979215;28;20695;-46
2022/09/04 07:36:06;;;;;;;2.92;2.50;;;20.20;85.60;;;;;;4979947;28;20048;-49
2022/09/04 07:38:56;;;;;;;3.30;2.42;;;20.10;86.30;;;;;;4975832;28;20132;-47
2022/09/04 07:41:27;;;;;;;4.80;2.42;;;20.20;86.20;;;;;;4979920;28;20133;-48
2022/09/04 07:44:13;;;;;;;5.97;2.42;;;19.90;86.80;;;;;;4985950;28;20073;-46
2022/09/04 07:46:48;;;;;;;5.80;2.72;;;20.00;87.00;;;;;;4968058;28;20046;-45
2022/09/04 07:49:22;;;;;;;4.45;2.42;;;20.10;87.40;;;;;;4981516;28;20216;-52
2022/09/04 07:52:13;;;;;;;2.80;2.60;;;20.30;87.30;;;;;;4973954;28;20125;-47
2022/09/04 07:55:12;;;;;;;3.35;2.50;;;20.50;87.40;;;;;;4979219;28;21971;-46
2022/09/04 07:58:09;;;;;;;3.15;2.33;;;20.50;86.70;;;;;;4977669;28;20070;-48
2022/09/04 08:00:59;;;;;;;5.28;2.65;;;20.80;87.40;;;;;;4975311;28;20070;-45
2022/09/04 08:03:43;;;;;;;4.68;2.80;;;20.80;86.10;;;;;;5006222;28;20388;-49
2022/09/04 08:06:14;;;;;;;4.93;2.60;;;20.70;86.30;;;;;;5047452;28;20041;-50
2022/09/04 08:08:49;;;;;;;4.35;2.40;;;20.80;86.50;;;;;;5042457;28;20041;-45
2022/09/04 08:11:28;;;;;;;4.95;2.40;;;21.00;87.20;;;;;;5038237;28;20049;-49
2022/09/04 08:14:12;;;;;;;5.18;2.45;;;21.10;86.70;;;;;;5041604;28;20057;-46
2022/09/04 08:17:19;;;;;;;3.08;2.35;;;21.20;86.90;;;;;;5041057;28;20037;-47
2022/09/04 08:20:12;;;;;;;6.18;3.13;;;21.30;86.70;;;;;;5045682;28;20056;-49
2022/09/04 08:22:51;;;;;;;5.18;2.53;;;21.40;87.40;;;;;;5049268;28;20197;-48
2022/09/04 08:25:28;;;;;;;4.50;2.50;;;21.50;86.60;;;;;;5037960;28;20033;-52
2022/09/04 08:28:08;;;;;;;3.95;2.70;;;21.80;86.70;;;;;;5038831;28;20387;-46
2022/09/04 08:30:45;;;;;;;5.47;2.85;;;21.90;86.20;;;;;;5045001;28;20139;-47
2022/09/04 08:33:17;;;;;;;2.53;2.33;;;22.00;86.10;;;;;;5025391;28;20041;-48
2022/09/04 08:35:54;;;;;;;3.45;2.10;;;22.10;86.00;;;;;;5039770;28;20428;-48
2022/09/04 08:38:23;;;;;;;;;;;22.30;85.50;;;;;;5025395;28;20033;-46
2022/09/04 08:41:21;;;;;;;4.78;2.72;;;22.40;85.60;;;;;;5040188;28;20319;-50
2022/09/04 08:43:53;;;;;;;7.65;2.60;;;22.30;86.40;;;;;;5042228;28;20487;-47
2022/09/04 08:46:31;;;;;;;2.20;1.98;;;22.50;86.50;;;;;;5043250;28;20053;-50
2022/09/04 08:49:10;;;;;;;5.25;2.45;;;22.60;85.70;;;;;;5045045;28;20647;-50
2022/09/04 08:51:55;;;;;;;3.70;2.28;;;22.90;85.60;;;;;;5040892;28;20041;-46
2022/09/04 08:54:33;;;;;;;4.57;2.50;;;22.80;85.00;;;;;;5041911;28;20489;-48
2022/09/04 08:57:35;;;;;;;3.00;2.55;;;22.70;85.20;;;;;;5042930;28;20033;-49
2022/09/04 09:00:27;;;;;;;3.25;2.10;;;22.70;85.80;;;;;;5042582;28;20110;-48
2022/09/04 09:03:21;;;;;;;3.03;2.45;;;22.90;86.20;;;;;;5020771;28;20037;-48
2022/09/04 09:06:37;;;;;;;4.28;2.35;;;23.00;85.40;;;;;;5039261;28;20103;-51
2022/09/04 09:09:21;;;;;;;3.20;2.30;;;23.30;85.80;;;;;;4960207;28;20050;-49
2022/09/04 09:11:53;;;;;;;3.53;2.40;;;23.30;86.00;;;;;;4947314;28;20055;-49
2022/09/04 09:14:40;;;;;;;2.40;2.20;;;23.50;85.80;;;;;;4959044;28;20405;-49
2022/09/04 09:17:43;;;;;;;3.33;2.38;;;23.60;85.10;;;;;;4946190;28;20123;-46
2022/09/04 09:20:27;;;;;;;3.85;2.15;;;23.70;85.20;;;;;;4944586;28;20043;-46
2022/09/04 09:23:15;;;;;;;4.20;2.22;;;23.60;84.70;;;;;;4963666;28;20043;-49
2022/09/04 09:25:51;;;;;;;2.88;2.42;;;23.60;85.20;;;;;;4945159;28;20122;-48
2022/09/04 09:28:25;;;;;;;4.22;2.67;;;23.50;84.10;;;;;;4957161;28;20043;-49
2022/09/04 09:30:59;;;;;;;6.43;2.55;;;23.80;84.90;;;;;;4952577;28;20066;-47
2022/09/04 09:33:56;;;;;;;4.50;2.28;;;23.90;84.50;;;;;;4949949;28;20734;-48
2022/09/04 09:36:57;;;;;;;4.55;2.95;;;23.90;83.70;;;;;;4953532;28;20560;-47
2022/09/04 09:39:35;;;;;;;3.03;2.17;;;23.70;84.20;;;;;;4961241;28;20049;-50
2022/09/04 09:43:19;;;;;;;3.33;2.40;;;24.00;83.60;;;;;;5114407;27;20488;-47
2022/09/04 09:45:45;;;;;;;3.08;2.40;;;24.30;84.60;;;;;;5114297;27;20129;-47
2022/09/04 09:48:40;;;;;;;3.03;2.40;;;24.40;84.60;;;;;;5117735;27;20488;-48
2022/09/04 09:52:01;;;;;;;2.50;2.30;;;24.40;84.10;;;;;;5114004;27;20040;-45
2022/09/04 09:54:45;;;;;;;3.10;2.10;;;24.70;97.40;;;;;;5102770;27;20534;-50
2022/09/04 09:57:51;;;;;;;3.28;2.38;;;24.80;83.70;;;;;;5119360;27;20048;-45
2022/09/04 10:00:18;;;;;;;2.50;2.10;;;24.60;82.60;;;;;;5119318;27;20032;-46
2022/09/04 10:03:27;;;;;;;3.38;2.17;;;25.00;98.00;;;;;;5116649;27;20051;-47
2022/09/04 10:06:19;;;;;;;2.78;2.22;;;25.00;94.90;;;;;;5117892;27;20047;-46
2022/09/04 10:11:53;;;;;;;3.05;2.22;;;25.10;94.80;;;;;;5098207;28;20047;-53
2022/09/04 10:14:59;;;;;;;2.67;1.80;;;25.40;83.50;;;;;;5096519;28;20048;-52
2022/09/04 10:17:30;;;;;;;9.25;2.17;;;25.50;82.00;;;;;;5066809;28;20431;-53
2022/09/04 10:20:26;;;;;;;3.53;2.08;;;25.50;82.00;;;;;;5098022;28;20152;-51
2022/09/04 10:23:16;;;;;;;3.38;2.08;;;25.40;83.00;;;;;;5099528;28;20046;-53
2022/09/04 10:26:06;;;;;;;2.53;2.20;;;25.70;84.80;;;;;;5099729;28;20041;-53
2022/09/04 10:28:47;;;;;;;4.95;2.05;;;25.40;86.60;;;;;;5097006;28;20170;-54
2022/09/04 10:31:41;;;;;;;3.13;1.88;;;25.60;86.80;;;;;;5101531;28;20040;-51
2022/09/04 10:34:45;;;;;;;3.10;2.00;;;25.60;87.70;;;;;;5099313;28;20093;-53
2022/09/04 10:37:17;;;;;;;2.80;1.88;;;25.70;94.50;;;;;;5103419;28;20051;-51
2022/09/04 10:43:21;;;;;;;3.00;1.83;;;26.20;92.80;;;;;;5102029;28;20060;-50
2022/09/04 10:46:00;;;;;;;3.85;1.88;;;26.00;81.50;;;;;;5100861;28;20413;-52
2022/09/04 10:48:53;;;;;;;3.03;1.80;;;26.00;81.50;;;;;;5101563;28;20051;-52
2022/09/04 10:51:48;;;;;;;3.05;2.22;;;26.00;81.00;;;;;;5083713;28;20497;-53
2022/09/04 10:54:32;;;;;;;4.03;1.80;;;26.00;80.50;;;;;;5072020;28;20076;-52
2022/09/04 10:57:17;;;;;;;2.42;1.60;;;26.30;80.50;;;;;;5085795;28;20044;-53
2022/09/04 10:59:55;;;;;;;2.60;1.90;;;26.40;81.20;;;;;;5085770;28;20052;-50
2022/09/04 11:02:51;;;;;;;2.45;1.80;;;26.40;80.40;;;;;;5089411;28;20050;-53
2022/09/04 11:05:36;;;;;;;3.58;1.63;;;26.40;81.00;;;;;;5087409;28;20119;-52
2022/09/04 11:08:40;;;;;;;3.92;1.70;;;26.50;81.60;;;;;;5087652;28;20043;-54
2022/09/04 11:11:46;;;;;;;3.80;1.60;;;26.70;81.20;;;;;;5101835;28;20067;-52
2022/09/04 11:14:40;;;;;;;1.93;1.83;;;26.60;80.80;;;;;;5087213;28;20040;-52
2022/09/04 11:17:14;;;;;;;1.80;1.70;;;26.50;81.20;;;;;;5101681;28;20541;-52
2022/09/04 11:19:54;;;;;;;2.00;1.80;;;26.60;81.40;;;;;;5100591;28;20039;-52
2022/09/04 11:22:58;;;;;;;2.47;1.60;;;26.70;80.40;;;;;;5105360;28;20564;-51
2022/09/04 11:26:04;;;;;;;3.65;1.60;;;27.00;81.40;;;;;;5108606;28;20042;-50
2022/09/04 11:28:46;;;;;;;3.17;1.52;;;27.00;99.40;;;;;;5109972;28;20047;-53
2022/09/04 11:31:33;;;;;;;2.35;1.65;;;27.50;90.40;;;;;;5090087;28;20051;-54
2022/09/04 11:34:29;;;;;;;3.00;1.63;;;;;;;;;;5108747;28;20051;-52
2022/09/04 11:37:32;;;;;;;2.60;1.57;;;27.30;99.90;;;;;;5105225;28;21654;-52
2022/09/04 11:40:13;;;;;;;2.08;1.60;;;27.70;98.00;;;;;;5107129;28;20285;-54
2022/09/04 11:42:45;;;;;;;1.65;1.50;;;27.70;88.30;;;;;;5108918;28;20031;-51
2022/09/04 11:45:32;;;;;;;3.88;1.70;;;27.70;79.00;;;;;;5108977;28;20124;-53
2022/09/04 11:48:06;;;;;;;;;;;27.60;78.90;;;;;;5105753;28;20079;-53
2022/09/04 11:50:58;;;;;;;1.65;1.55;;;27.60;79.70;;;;;;5106180;28;19924;-52
2022/09/04 11:53:39;;;;;;;1.90;1.50;;;27.70;79.30;;;;;;5106448;28;20504;-53
2022/09/04 11:56:26;;;;;;;2.95;1.50;;;27.40;79.00;;;;;;5106731;28;20517;-52
2022/09/04 11:59:18;;;;;;;2.88;1.92;;;27.30;79.40;;;;;;5105772;28;20618;-53
2022/09/04 12:02:00;;;;;;;1.92;1.42;;;27.30;78.90;;;;;;5105296;28;20036;-54
2022/09/04 12:04:38;;;;;;;1.90;1.80;;;27.50;79.80;;;;;;5107881;28;20040;-52
2022/09/04 12:07:24;;;;;;;2.20;1.50;;;27.60;79.50;;;;;;5103270;28;20139;-50
2022/09/04 12:09:59;;;;;;;2.75;1.45;;;27.80;80.20;;;;;;5095759;28;20051;-53
2022/09/04 12:12:41;;;;;;;1.60;1.50;;;27.90;85.00;;;;;;5097951;28;20043;-53
2022/09/04 12:15:23;;;;;;;2.10;1.40;;;27.80;84.90;;;;;;5098357;28;20500;-53
2022/09/04 12:17:58;;;;;;;2.35;1.50;;;27.80;85.20;;;;;;5096561;28;20603;-53
2022/09/04 12:20:49;;;;;;;1.92;1.60;;;28.00;81.90;;;;;;5097757;28;20394;-54
2022/09/04 12:23:36;;;;;;;1.73;1.30;;;28.00;92.30;;;;;;5084390;28;20077;-53
2022/09/04 12:26:25;;;;;;;1.80;1.70;;;28.20;80.90;;;;;;5102636;28;20043;-54
2022/09/04 12:29:01;;;;;;;1.90;1.60;;;28.10;79.80;;;;;;5095668;28;20382;-54
2022/09/04 12:31:32;;;;;;;1.92;1.65;;;28.20;78.50;;;;;;5100560;28;20055;-54
2022/09/04 12:34:13;;;;;;;1.90;1.45;;;28.50;78.60;;;;;;5112411;28;20478;-50
2022/09/04 12:37:15;;;;;;;4.13;1.70;;;28.20;78.00;;;;;;5112775;28;20043;-53
2022/09/04 12:39:49;;;;;;;3.22;1.65;;;;;;;;;;5085079;28;20058;-52
2022/09/04 12:42:17;;;;;;;3.00;1.60;;;28.50;76.60;;;;;;5112679;28;20432;-55
2022/09/04 12:45:10;;;;;;;2.65;1.70;;;28.40;77.10;;;;;;5112425;28;20044;-54
2022/09/04 12:47:44;;;;;;;2.70;1.60;;;28.40;77.70;;;;;;5112586;28;20036;-54
2022/09/04 12:50:26;;;;;;;3.28;1.70;;;28.50;78.30;;;;;;5113003;28;20042;-54
2022/09/04 12:53:03;;;;;;;1.88;1.70;;;28.60;76.80;;;;;;5105639;28;20047;-52
2022/09/04 12:55:51;;;;;;;2.08;1.70;;;28.90;76.80;;;;;;5091526;28;20054;-53
2022/09/04 12:58:41;;;;;;;4.30;1.67;;;;;;;;;;5111506;28;20048;-50
2022/09/04 13:01:15;;;;;;;1.48;1.35;;;29.10;76.70;;;;;;5090738;28;20097;-52
2022/09/04 13:04:02;;;;;;;1.52;1.40;;;29.20;76.60;;;;;;5109748;28;20040;-53
2022/09/04 13:06:38;;;;;;;2.20;1.50;;;29.30;76.90;;;;;;5107982;28;20085;-54
2022/09/04 13:09:07;;;;;;;3.30;1.90;;;29.10;75.50;;;;;;5109666;28;20438;-55
2022/09/04 13:11:54;;;;;;;3.03;1.75;;;29.00;75.90;;;;;;5108294;28;20044;-54
2022/09/04 13:14:22;;;;;;;2.08;1.38;;;29.40;77.00;;;;;;5109452;28;20059;-53
2022/09/04 13:16:54;;;;;;;2.38;1.70;;;29.30;76.30;;;;;;5111599;28;20036;-52
2022/09/04 13:19:43;;;;;;;2.05;1.60;;;29.30;76.30;;;;;;5110494;28;20047;-52
2022/09/04 13:22:34;;;;;;;4.82;1.88;;;29.00;74.70;;;;;;5065890;28;20039;-54
2022/09/04 13:25:28;;;;;;;1.73;1.63;;;28.80;74.60;;;;;;5111444;28;20070;-54
2022/09/04 13:28:13;;;;;;;3.90;1.90;;;28.70;75.60;;;;;;5066592;28;20497;-53
2022/09/04 13:30:51;;;;;;;2.03;1.58;;;28.60;74.30;;;;;;5110919;28;20173;-53
2022/09/04 13:33:52;;;;;;;2.00;1.80;;;28.80;75.20;;;;;;5113142;28;20044;-54
2022/09/04 13:36:40;;;;;;;3.22;1.58;;;29.10;76.10;;;;;;5103486;28;20044;-53
2022/09/04 13:39:18;;;;;;;4.07;1.60;;;29.00;75.70;;;;;;5111054;28;20040;-53
2022/09/04 13:42:25;;;;;;;1.73;1.63;;;29.10;75.50;;;;;;5110832;28;20054;-54
2022/09/04 13:45:22;;;;;;;1.63;1.52;;;28.80;74.70;;;;;;5107604;28;20063;-53
2022/09/04 13:47:56;;;;;;;;;;;29.00;75.20;;;;;;5099013;28;20050;-54
2022/09/04 13:50:41;;;;;;;2.95;1.70;;;29.10;75.20;;;;;;5088551;28;19927;-54
2022/09/04 13:53:18;;;;;;;1.90;1.67;;;29.30;75.50;;;;;;5109376;28;20063;-52
2022/09/04 13:55:56;;;;;;;2.90;1.67;;;29.20;74.70;;;;;;5110118;28;20054;-54
2022/09/04 13:58:28;;;;;;;3.92;1.92;;;29.20;75.20;;;;;;5111840;28;20405;-53
2022/09/04 14:00:59;;;;;;;1.80;1.70;;;29.30;75.40;;;;;;5110140;28;20050;-52
2022/09/04 14:03:50;;;;;;;2.92;1.85;;;29.30;74.70;;;;;;5111488;28;20048;-53
2022/09/04 14:06:19;;;;;;;2.40;1.70;;;29.10;75.40;;;;;;5109227;28;20149;-52
2022/09/04 14:08:48;;;;;;;2.45;1.50;;;29.00;75.10;;;;;;5111166;28;20508;-52
2022/09/04 14:11:19;;;;;;;2.65;1.90;;;28.80;74.50;;;;;;5107452;28;20058;-52
2022/09/04 14:13:44;;;;;;;6.43;1.95;;;29.00;74.50;;;;;;5108663;28;20035;-52
2022/09/04 14:16:14;;;;;;;1.77;1.50;;;29.00;76.00;;;;;;5110242;28;20043;-53
2022/09/04 14:19:11;;;;;;;1.83;1.60;;;29.10;74.90;;;;;;5110997;28;20439;-53
2022/09/04 14:21:55;;;;;;;1.95;1.58;;;28.60;74.20;;;;;;5109756;28;20457;-53
2022/09/04 14:24:40;;;;;;;3.80;1.80;;;28.50;75.30;;;;;;5094210;28;20035;-53
2022/09/04 14:27:39;;;;;;;1.80;1.70;;;28.60;75.50;;;;;;5109437;28;20397;-53
2022/09/04 14:30:13;;;;;;;3.08;1.77;;;28.60;75.90;;;;;;5113550;28;20508;-51